Time;durP1;ratioP1;P1;durP2;ratioP2;P2;SDS_P1;SDS_P2;PMS_P1;PMS_P2;Temp;Humidity;BMP_temperature;BMP_pressure;BME280_temperature;BME280_humidity;BME280_pressure;Samples;Min_cycle;Max_cycle;Signal;HPM_P1;HPM_P2
2023/07/01 00:00:18;;;;;;;4.38;2.47;;;;;;;;;;5057485;28;20527;-19
2023/07/01 00:02:48;;;;;;;8.98;2.58;;;;;;;;;;5057291;28;20122;-20
2023/07/01 00:05:14;;;;;;;6.47;3.28;;;;;;;;;;5040110;28;20118;-19
2023/07/01 00:07:40;;;;;;;4.13;3.40;;;;;;;;;;5057312;28;20028;-20
2023/07/01 00:10:06;;;;;;;3.03;2.72;;;;;;;;;;5057287;28;20029;-21
2023/07/01 00:12:32;;;;;;;3.95;2.63;;;;;;;;;;5057137;28;20104;-21
2023/07/01 00:14:58;;;;;;;4.90;2.55;;;;;;;;;;5057464;28;20413;-19
2023/07/01 00:17:25;;;;;;;9.90;3.83;;;;;;;;;;5057305;28;20033;-20
2023/07/01 00:19:51;;;;;;;2.47;2.28;;;;;;;;;;5056959;28;20025;-18
2023/07/01 00:22:17;;;;;;;5.40;2.30;;;;;;;;;;5057241;28;20029;-21
2023/07/01 00:24:43;;;;;;;5.53;2.70;;;;;;;;;;5056530;28;20036;-20
2023/07/01 00:27:09;;;;;;;3.75;2.53;;;;;;;;;;5057234;28;20024;-23
2023/07/01 00:29:35;;;;;;;4.05;2.33;;;;;;;;;;5039303;28;20025;-23
2023/07/01 00:32:01;;;;;;;3.70;2.63;;;;;;;;;;5056742;28;20464;-20
2023/07/01 00:34:27;;;;;;;3.03;2.70;;;;;;;;;;5056808;28;20025;-21
2023/07/01 00:36:54;;;;;;;4.88;3.75;;;;;;;;;;5056679;28;20344;-20
2023/07/01 00:39:20;;;;;;;3.35;2.60;;;;;;;;;;5056707;28;20040;-23
2023/07/01 00:41:52;;;;;;;5.30;2.40;;;;;;;;;;5056803;28;20036;-31
2023/07/01 00:44:18;;;;;;;3.08;2.45;;;;;;;;;;5056943;28;20029;-24
2023/07/01 00:46:44;;;;;;;2.30;2.05;;;;;;;;;;5056489;28;20498;-19
2023/07/01 00:49:11;;;;;;;4.82;2.35;;;;;;;;;;5056812;28;20102;-21
2023/07/01 00:51:38;;;;;;;6.20;2.50;;;;;;;;;;5056523;28;20036;-20
2023/07/01 00:54:04;;;;;;;7.05;2.53;;;;;;;;;;5056351;28;20452;-20
2023/07/01 00:56:31;;;;;;;4.10;2.17;;;;;;;;;;5056340;28;20193;-20
2023/07/01 00:58:57;;;;;;;5.88;2.20;;;;;;;;;;5038759;28;20048;-21
2023/07/01 01:01:27;;;;;;;5.20;3.83;;;;;;;;;;5056631;28;20025;-19
2023/07/01 01:04:09;;;;;;;4.70;2.50;;;;;;;;;;5055966;28;20087;-20
2023/07/01 01:06:43;;;;;;;6.72;3.22;;;;;;;;;;5056146;28;20035;-20
2023/07/01 01:09:21;;;;;;;5.72;3.33;;;;;;;;;;5056165;28;20021;-20
2023/07/01 01:11:48;;;;;;;5.25;2.97;;;;;;;;;;5056350;28;20037;-19
2023/07/01 01:14:15;;;;;;;4.63;3.05;;;;;;;;;;5056074;28;20029;-25
2023/07/01 01:16:42;;;;;;;4.15;3.05;;;;;;;;;;5056229;28;20043;-23
2023/07/01 01:19:10;;;;;;;6.03;2.75;;;;;;;;;;5055942;28;20078;-23
2023/07/01 01:21:37;;;;;;;4.22;2.42;;;;;;;;;;5056463;28;20086;-22
2023/07/01 01:24:06;;;;;;;2.65;2.40;;;;;;;;;;5055798;28;20399;-18
2023/07/01 01:26:40;;;;;;;4.55;2.22;;;;;;;;;;5055835;28;20025;-24
2023/07/01 01:29:06;;;;;;;3.30;2.50;;;;;;;;;;5055761;28;20024;-22
2023/07/01 01:31:33;;;;;;;4.95;2.50;;;;;;;;;;5055966;28;20098;-25
2023/07/01 01:33:59;;;;;;;3.00;2.40;;;;;;;;;;5055631;28;20032;-22
2023/07/01 01:36:25;;;;;;;3.47;1.95;;;;;;;;;;5054796;28;20495;-21
2023/07/01 01:38:52;;;;;;;6.03;2.38;;;;;;;;;;5055593;28;20352;-20
2023/07/01 01:41:28;;;;;;;7.00;4.45;;;;;;;;;;5055517;28;20025;-20
2023/07/01 01:44:02;;;;;;;4.65;2.58;;;;;;;;;;5055409;28;20036;-19
2023/07/01 01:46:29;;;;;;;4.13;2.25;;;;;;;;;;5055603;28;20057;-21
2023/07/01 01:48:56;;;;;;;4.90;2.90;;;;;;;;;;5055411;28;20040;-19
2023/07/01 01:51:23;;;;;;;3.17;2.22;;;;;;;;;;5055314;28;20060;-18
2023/07/01 01:53:50;;;;;;;3.00;2.70;;;;;;;;;;5055235;28;20452;-18
2023/07/01 01:56:17;;;;;;;5.43;2.88;;;;;;;;;;5055441;28;20107;-19
2023/07/01 01:58:43;;;;;;;5.82;2.72;;;;;;;;;;5055476;28;20413;-22
2023/07/01 02:01:09;;;;;;;4.38;2.70;;;;;;;;;;5055188;28;20063;-22
2023/07/01 02:03:36;;;;;;;3.38;2.83;;;;;;;;;;5054913;28;20113;-23
2023/07/01 02:06:02;;;;;;;3.50;1.92;;;;;;;;;;5055110;28;20036;-20
2023/07/01 02:08:28;;;;;;;3.58;2.03;;;;;;;;;;5054994;28;20107;-20
2023/07/01 02:10:54;;;;;;;3.20;2.05;;;;;;;;;;5055044;28;20024;-21
2023/07/01 02:13:20;;;;;;;5.05;2.40;;;;;;;;;;5054898;28;20032;-20
2023/07/01 02:15:46;;;;;;;2.30;2.10;;;;;;;;;;5055159;28;20104;-22
2023/07/01 02:18:12;;;;;;;4.50;2.85;;;;;;;;;;5054849;28;20040;-21
2023/07/01 02:20:38;;;;;;;2.90;2.08;;;;;;;;;;5054898;28;20191;-18
2023/07/01 02:23:05;;;;;;;5.65;2.72;;;;;;;;;;5054988;28;20036;-19
2023/07/01 02:25:31;;;;;;;4.10;2.63;;;;;;;;;;5054718;28;20031;-20
2023/07/01 02:27:58;;;;;;;2.55;1.90;;;;;;;;;;5055024;28;20371;-20
2023/07/01 02:30:24;;;;;;;3.85;2.55;;;;;;;;;;5054728;28;20016;-20
2023/07/01 02:32:50;;;;;;;3.38;2.20;;;;;;;;;;5054613;28;20033;-20
2023/07/01 02:35:16;;;;;;;3.03;1.65;;;;;;;;;;5037145;28;20044;-21
2023/07/01 02:37:42;;;;;;;4.20;2.47;;;;;;;;;;5054530;28;20044;-22
2023/07/01 02:40:09;;;;;;;3.13;2.30;;;;;;;;;;5054641;28;20503;-18
2023/07/01 02:42:35;;;;;;;4.13;2.40;;;;;;;;;;5054504;28;20040;-20
2023/07/01 02:45:01;;;;;;;4.20;1.90;;;;;;;;;;5054578;28;20025;-20
2023/07/01 02:47:27;;;;;;;4.32;2.50;;;;;;;;;;5054438;28;20060;-18
2023/07/01 02:49:53;;;;;;;3.55;2.08;;;;;;;;;;5054447;28;20021;-21
2023/07/01 02:52:19;;;;;;;1.98;1.85;;;;;;;;;;5054349;28;20029;-20
2023/07/01 02:54:45;;;;;;;2.97;2.22;;;;;;;;;;5055018;28;20025;-17
2023/07/01 02:57:11;;;;;;;2.63;2.17;;;;;;;;;;5054377;28;20033;-22
2023/07/01 02:59:38;;;;;;;2.83;1.95;;;;;;;;;;5054447;28;20075;-19
2023/07/01 03:02:04;;;;;;;2.30;1.92;;;;;;;;;;5054359;28;20025;-19
2023/07/01 03:04:31;;;;;;;3.45;2.22;;;;;;;;;;5054228;28;20032;-18
2023/07/01 03:06:57;;;;;;;2.63;2.42;;;;;;;;;;5054325;28;20036;-20
2023/07/01 03:09:23;;;;;;;3.20;1.92;;;;;;;;;;5036782;28;20060;-24
2023/07/01 03:11:51;;;;;;;2.85;1.73;;;;;;;;;;5054193;28;20041;-20
2023/07/01 03:14:18;;;;;;;4.13;2.00;;;;;;;;;;5054530;28;20056;-22
2023/07/01 03:16:44;;;;;;;2.95;2.40;;;;;;;;;;5036607;28;20102;-19
2023/07/01 03:19:10;;;;;;;13.50;4.32;;;;;;;;;;5054238;28;20021;-24
2023/07/01 03:21:37;;;;;;;6.68;2.35;;;;;;;;;;5054220;28;20025;-20
2023/07/01 03:24:03;;;;;;;2.70;2.47;;;;;;;;;;5054366;28;20444;-21
2023/07/01 03:26:30;;;;;;;5.60;2.22;;;;;;;;;;5054719;28;20032;-22
2023/07/01 03:28:56;;;;;;;5.20;2.38;;;;;;;;;;5054397;28;20119;-22
2023/07/01 03:31:22;;;;;;;3.75;2.50;;;;;;;;;;5054143;28;20025;-17
2023/07/01 03:33:49;;;;;;;2.85;2.28;;;;;;;;;;5053973;28;20050;-18
2023/07/01 03:36:15;;;;;;;3.47;2.40;;;;;;;;;;5054246;28;20035;-22
2023/07/01 03:38:41;;;;;;;3.17;2.08;;;;;;;;;;5054297;28;20056;-20
2023/07/01 03:41:07;;;;;;;2.40;2.00;;;;;;;;;;5054065;28;20048;-19
2023/07/01 03:43:34;;;;;;;4.90;2.88;;;;;;;;;;5053922;28;20025;-21
2023/07/01 03:46:00;;;;;;;2.38;2.17;;;;;;;;;;5053974;28;20029;-22
2023/07/01 03:48:27;;;;;;;3.60;2.60;;;;;;;;;;5053986;28;20028;-19
2023/07/01 03:50:53;;;;;;;2.95;2.67;;;;;;;;;;5054136;28;20029;-21
2023/07/01 03:53:19;;;;;;;2.20;2.10;;;;;;;;;;5053846;28;20028;-19
2023/07/01 03:55:47;;;;;;;4.50;2.30;;;;;;;;;;5036349;28;20024;-17
2023/07/01 03:58:21;;;;;;;2.58;2.35;;;;;;;;;;5036295;28;20063;-19
2023/07/01 04:00:48;;;;;;;4.10;2.65;;;;;;;;;;5056163;28;20448;-26
2023/07/01 04:03:14;;;;;;;2.35;2.05;;;;;;;;;;5057156;28;20049;-22
2023/07/01 04:05:40;;;;;;;4.55;3.08;;;;;;;;;;5057290;28;20189;-25
2023/07/01 04:08:06;;;;;;;4.22;2.92;;;;;;;;;;5057522;28;20329;-20
2023/07/01 04:10:32;;;;;;;4.70;2.20;;;;;;;;;;5057425;28;20060;-22
2023/07/01 04:13:00;;;;;;;2.60;2.13;;;;;;;;;;5057076;28;20036;-20
2023/07/01 04:15:27;;;;;;;2.95;2.15;;;;;;;;;;5057214;28;20451;-21
2023/07/01 04:17:54;;;;;;;3.22;2.53;;;;;;;;;;5057241;28;20036;-21
2023/07/01 04:20:20;;;;;;;2.88;2.10;;;;;;;;;;5057098;28;20017;-20
2023/07/01 04:22:46;;;;;;;3.40;2.78;;;;;;;;;;5056971;28;20021;-21
2023/07/01 04:25:13;;;;;;;2.03;1.85;;;;;;;;;;5057022;28;20029;-23
2023/07/01 04:27:42;;;;;;;2.85;2.30;;;;;;;;;;5056935;28;20056;-23
2023/07/01 04:30:08;;;;;;;2.53;2.33;;;;;;;;;;5057080;28;20021;-21
2023/07/01 04:32:34;;;;;;;3.67;2.13;;;;;;;;;;5039548;28;20061;-19
2023/07/01 04:35:01;;;;;;;2.33;2.13;;;;;;;;;;5056942;28;20039;-20
2023/07/01 04:37:27;;;;;;;5.80;2.88;;;;;;;;;;5056674;28;20025;-20
2023/07/01 04:39:53;;;;;;;2.80;2.40;;;;;;;;;;5056633;28;20083;-19
2023/07/01 04:42:19;;;;;;;3.58;2.05;;;;;;;;;;5056798;28;20020;-20
2023/07/01 04:44:53;;;;;;;4.05;2.50;;;;;;;;;;5056850;28;20448;-20
2023/07/01 04:47:23;;;;;;;3.00;2.63;;;;;;;;;;5057192;28;20462;-22
2023/07/01 04:49:52;;;;;;;2.65;2.03;;;;;;;;;;5056507;28;20028;-24
2023/07/01 04:52:18;;;;;;;2.83;2.22;;;;;;;;;;5056541;28;20112;-23
2023/07/01 04:54:44;;;;;;;4.65;2.38;;;;;;;;;;5056245;28;20025;-20
2023/07/01 04:57:11;;;;;;;2.70;2.50;;;;;;;;;;5056175;28;20049;-23
2023/07/01 04:59:37;;;;;;;3.83;2.85;;;;;;;;;;5038666;28;20025;-24
2023/07/01 05:02:03;;;;;;;3.15;2.30;;;;;;;;;;5056079;28;20025;-24
2023/07/01 05:04:29;;;;;;;7.35;2.75;;;;;;;;;;5056060;28;20040;-20
2023/07/01 05:06:55;;;;;;;3.45;2.00;;;;;;;;;;5056372;28;20029;-19
2023/07/01 05:09:21;;;;;;;3.70;2.30;;;;;;;;;;5056415;28;20304;-17
2023/07/01 05:11:48;;;;;;;2.05;1.95;;;;;;;;;;5055087;28;20459;-18
2023/07/01 05:14:14;;;;;;;2.67;2.17;;;;;;;;;;5056323;28;20060;-20
2023/07/01 05:16:40;;;;;;;3.35;2.10;;;;;;;;;;5055959;28;20033;-23
2023/07/01 05:19:06;;;;;;;3.67;2.20;;;;;;;;;;5056262;28;20092;-20
2023/07/01 05:21:33;;;;;;;2.47;2.00;;;;;;;;;;5056248;28;20017;-23
2023/07/01 05:23:59;;;;;;;2.50;2.30;;;;;;;;;;5055844;28;20022;-21
2023/07/01 05:26:26;;;;;;;2.38;2.05;;;;;;;;;;5056026;28;20410;-24
2023/07/01 05:28:53;;;;;;;3.33;2.67;;;;;;;;;;5056223;28;20372;-20
2023/07/01 05:31:19;;;;;;;2.45;2.17;;;;;;;;;;5055980;28;20017;-21
2023/07/01 05:33:45;;;;;;;5.03;2.25;;;;;;;;;;5055639;28;20025;-18
2023/07/01 05:36:12;;;;;;;3.10;2.35;;;;;;;;;;5055430;28;20040;-21
2023/07/01 05:38:39;;;;;;;2.58;1.95;;;;;;;;;;5055563;28;20021;-19
2023/07/01 05:41:06;;;;;;;3.03;2.45;;;;;;;;;;5055552;28;20012;-22
2023/07/01 05:43:32;;;;;;;3.30;2.25;;;;;;;;;;5055668;28;20025;-19
2023/07/01 05:45:58;;;;;;;2.70;2.50;;;;;;;;;;5055433;28;20352;-20
2023/07/01 05:48:24;;;;;;;7.25;2.42;;;;;;;;;;5055393;28;20029;-21
2023/07/01 05:50:50;;;;;;;3.15;2.67;;;;;;;;;;5055307;28;20024;-21
2023/07/01 05:53:16;;;;;;;2.53;1.85;;;;;;;;;;5055176;28;20100;-26
2023/07/01 05:55:42;;;;;;;3.08;2.20;;;;;;;;;;5055235;28;20415;-26
2023/07/01 05:58:08;;;;;;;3.72;2.42;;;;;;;;;;5055159;28;20029;-22
2023/07/01 06:00:35;;;;;;;4.82;1.90;;;;;;;;;;5055664;28;20050;-19
2023/07/01 06:03:01;;;;;;;2.42;2.20;;;;;;;;;;5054979;28;20101;-21
2023/07/01 06:05:27;;;;;;;2.10;1.95;;;;;;;;;;5055050;28;20036;-20
2023/07/01 06:07:53;;;;;;;2.50;2.00;;;;;;;;;;5055287;28;20420;-21
2023/07/01 06:10:19;;;;;;;2.35;2.15;;;;;;;;;;5054886;28;20086;-19
2023/07/01 06:12:45;;;;;;;6.80;2.25;;;;;;;;;;5054869;28;20036;-21
2023/07/01 06:15:11;;;;;;;2.40;2.00;;;;;;;;;;5055105;28;20028;-22
2023/07/01 06:17:37;;;;;;;3.30;2.70;;;;;;;;;;5055029;28;20036;-19
2023/07/01 06:20:05;;;;;;;2.97;2.20;;;;;;;;;;5055319;28;20102;-19
2023/07/01 06:22:31;;;;;;;4.40;1.98;;;;;;;;;;5037127;28;20036;-18
2023/07/01 06:24:57;;;;;;;2.47;1.92;;;;;;;;;;5055061;28;20021;-23
2023/07/01 06:27:23;;;;;;;4.00;2.00;;;;;;;;;;5055825;28;20024;-22
2023/07/01 06:29:49;;;;;;;2.58;2.28;;;;;;;;;;5054696;28;20024;-21
2023/07/01 06:32:15;;;;;;;2.35;1.77;;;;;;;;;;5054882;28;20043;-20
2023/07/01 06:34:42;;;;;;;2.85;2.20;;;;;;;;;;5054678;28;20040;-20
2023/07/01 06:37:08;;;;;;;2.38;2.05;;;;;;;;;;5054494;28;20104;-20
2023/07/01 06:39:34;;;;;;;2.72;1.90;;;;;;;;;;5054566;28;20032;-20
2023/07/01 06:42:00;;;;;;;2.20;2.00;;;;;;;;;;5054594;28;20034;-19
2023/07/01 06:44:26;;;;;;;4.40;2.25;;;;;;;;;;5054452;28;20021;-20
2023/07/01 06:46:52;;;;;;;2.88;2.55;;;;;;;;;;5054610;28;20024;-17
2023/07/01 06:49:18;;;;;;;2.67;2.08;;;;;;;;;;5054383;28;20036;-20
2023/07/01 06:51:44;;;;;;;3.08;2.70;;;;;;;;;;5054445;28;20048;-22
2023/07/01 06:54:11;;;;;;;6.57;2.15;;;;;;;;;;5054307;28;20133;-20
2023/07/01 06:56:37;;;;;;;7.05;2.08;;;;;;;;;;5054114;28;20021;-21
2023/07/01 06:59:03;;;;;;;7.97;2.20;;;;;;;;;;5054269;28;20096;-24
2023/07/01 07:01:30;;;;;;;2.60;2.30;;;;;;;;;;5036738;28;20147;-20
2023/07/01 07:03:56;;;;;;;3.13;2.60;;;;;;;;;;5053995;28;20524;-22
2023/07/01 07:06:23;;;;;;;3.03;2.28;;;;;;;;;;5054297;28;20079;-22
2023/07/01 07:08:49;;;;;;;2.83;2.60;;;;;;;;;;5054305;28;20036;-20
2023/07/01 07:11:15;;;;;;;2.70;1.80;;;;;;;;;;5054537;28;20367;-18
2023/07/01 07:13:41;;;;;;;5.40;2.15;;;;;;;;;;5054381;28;20094;-22
2023/07/01 07:16:07;;;;;;;2.40;1.63;;;;;;;;;;5054384;28;20025;-20
2023/07/01 07:18:33;;;;;;;3.33;1.92;;;;;;;;;;5054528;28;20032;-22
2023/07/01 07:20:59;;;;;;;2.08;1.80;;;;;;;;;;5054473;28;20079;-21
2023/07/01 07:23:25;;;;;;;2.28;2.08;;;;;;;;;;5054370;28;20116;-18
2023/07/01 07:25:52;;;;;;;4.65;3.25;;;;;;;;;;5054175;28;20111;-20
2023/07/01 07:28:18;;;;;;;2.20;1.88;;;;;;;;;;5054315;28;20029;-21
2023/07/01 07:30:44;;;;;;;3.67;2.63;;;;;;;;;;5054036;28;20025;-18
2023/07/01 07:33:10;;;;;;;2.45;1.90;;;;;;;;;;5054135;28;20452;-20
2023/07/01 07:35:36;;;;;;;1.95;1.50;;;;;;;;;;5038849;28;20025;-20
2023/07/01 07:38:02;;;;;;;2.20;2.10;;;;;;;;;;5057817;28;20025;-27
2023/07/01 07:40:28;;;;;;;5.93;2.40;;;;;;;;;;5057765;28;20516;-22
2023/07/01 07:42:55;;;;;;;5.93;2.08;;;;;;;;;;5057632;28;20096;-20
2023/07/01 07:45:21;;;;;;;3.08;2.10;;;;;;;;;;5057989;28;20029;-18
2023/07/01 07:47:47;;;;;;;2.40;2.10;;;;;;;;;;5057797;28;20039;-24
2023/07/01 07:50:14;;;;;;;4.28;2.25;;;;;;;;;;5057564;28;20456;-18
2023/07/01 07:52:40;;;;;;;3.80;2.13;;;;;;;;;;5057612;28;20055;-18
2023/07/01 07:55:06;;;;;;;2.85;2.03;;;;;;;;;;5057365;28;20024;-22
2023/07/01 07:57:33;;;;;;;2.22;2.03;;;;;;;;;;5057413;28;20025;-20
2023/07/01 08:00:00;;;;;;;3.75;1.88;;;;;;;;;;5057755;28;20024;-19
2023/07/01 08:02:26;;;;;;;5.13;1.92;;;;;;;;;;5057342;28;20025;-22
2023/07/01 08:04:52;;;;;;;3.15;2.25;;;;;;;;;;5057707;28;20029;-23
2023/07/01 08:07:18;;;;;;;3.55;1.75;;;;;;;;;;5058096;28;20029;-20
2023/07/01 08:09:44;;;;;;;3.17;2.10;;;;;;;;;;5057241;28;20025;-21
2023/07/01 08:12:10;;;;;;;2.72;2.17;;;;;;;;;;5057404;28;20111;-17
2023/07/01 08:14:36;;;;;;;4.97;2.75;;;;;;;;;;5057436;28;20049;-17
2023/07/01 08:17:03;;;;;;;2.33;1.65;;;;;;;;;;5057071;28;20112;-22
2023/07/01 08:19:29;;;;;;;5.70;2.03;;;;;;;;;;5040006;28;20035;-22
2023/07/01 08:21:55;;;;;;;3.05;1.85;;;;;;;;;;5057244;28;20074;-19
2023/07/01 08:24:21;;;;;;;2.00;1.77;;;;;;;;;;5057301;28;20060;-21
2023/07/01 08:26:47;;;;;;;2.58;1.60;;;;;;;;;;5057261;28;20021;-20
2023/07/01 08:29:14;;;;;;;1.95;1.85;;;;;;;;;;5057477;28;20025;-22
2023/07/01 08:31:40;;;;;;;2.05;1.83;;;;;;;;;;5056856;28;20039;-18
2023/07/01 08:34:06;;;;;;;1.83;1.70;;;;;;;;;;5057035;28;20040;-18
2023/07/01 08:36:32;;;;;;;2.13;1.92;;;;;;;;;;5056668;28;20025;-18
2023/07/01 08:38:59;;;;;;;1.73;1.60;;;;;;;;;;5039175;28;20029;-20
2023/07/01 08:41:25;;;;;;;3.47;1.60;;;;;;;;;;5056610;28;20048;-24
2023/07/01 08:43:54;;;;;;;2.47;1.80;;;;;;;;;;5056572;28;20025;-23
2023/07/01 08:46:22;;;;;;;2.35;2.03;;;;;;;;;;5039249;28;20021;-22
2023/07/01 08:48:49;;;;;;;2.53;2.08;;;;;;;;;;5056569;28;20222;-24
2023/07/01 08:51:18;;;;;;;4.15;1.55;;;;;;;;;;5056791;28;20025;-18
2023/07/01 08:53:45;;;;;;;2.03;1.83;;;;;;;;;;5056673;28;20533;-18
2023/07/01 08:56:13;;;;;;;2.70;1.70;;;;;;;;;;5056591;28;20360;-22
2023/07/01 08:58:40;;;;;;;3.17;1.95;;;;;;;;;;5056574;28;20379;-25
2023/07/01 09:01:06;;;;;;;1.67;1.55;;;;;;;;;;5056540;28;20024;-19
2023/07/01 09:03:35;;;;;;;1.90;1.80;;;;;;;;;;5055907;28;20043;-22
2023/07/01 09:06:02;;;;;;;2.65;1.75;;;;;;;;;;5056194;28;20064;-27
2023/07/01 09:08:28;;;;;;;2.35;1.75;;;;;;;;;;5056154;28;20025;-21
2023/07/01 09:10:54;;;;;;;1.58;1.48;;;;;;;;;;5056652;28;20017;-20
2023/07/01 09:13:21;;;;;;;2.42;1.88;;;;;;;;;;5056099;28;20384;-21
2023/07/01 09:15:48;;;;;;;3.08;1.80;;;;;;;;;;5055991;28;20057;-21
2023/07/01 09:18:24;;;;;;;2.92;1.60;;;;;;;;;;5055944;28;20042;-19
2023/07/01 09:20:50;;;;;;;4.70;1.80;;;;;;;;;;5055948;28;20032;-17
2023/07/01 09:23:27;;;;;;;2.97;1.30;;;;;;;;;;5038297;28;20552;-17
2023/07/01 09:25:54;;;;;;;2.67;2.20;;;;;;;;;;5056061;28;20025;-23
2023/07/01 09:28:39;;;;;;;2.15;1.70;;;;;;;;;;5056063;28;20104;-17
2023/07/01 09:31:06;;;;;;;4.57;1.92;;;;;;;;;;5055674;28;20025;-21
2023/07/01 09:33:34;;;;;;;7.22;2.28;;;;;;;;;;5055538;28;20039;-24
2023/07/01 09:36:01;;;;;;;3.13;2.33;;;;;;;;;;5055928;28;20029;-25
2023/07/01 09:38:28;;;;;;;3.45;1.73;;;;;;;;;;5055471;28;20040;-23
2023/07/01 09:40:54;;;;;;;1.85;1.65;;;;;;;;;;5056079;28;20060;-26
2023/07/01 09:43:20;;;;;;;1.85;1.75;;;;;;;;;;5055662;28;20025;-20
2023/07/01 09:45:56;;;;;;;1.60;1.50;;;;;;;;;;5055490;28;20049;-19
2023/07/01 09:48:23;;;;;;;1.85;1.75;;;;;;;;;;5056254;28;20017;-19
2023/07/01 09:50:49;;;;;;;5.75;1.90;;;;;;;;;;5055575;28;20090;-24
2023/07/01 09:53:19;;;;;;;1.95;1.80;;;;;;;;;;5055565;28;20028;-24
2023/07/01 09:55:46;;;;;;;1.77;1.60;;;;;;;;;;5055249;28;20025;-21
2023/07/01 09:58:13;;;;;;;1.88;1.60;;;;;;;;;;5054584;28;20103;-20
2023/07/01 10:00:39;;;;;;;2.10;1.90;;;;;;;;;;5055485;28;20029;-20
2023/07/01 10:03:07;;;;;;;1.60;1.50;;;;;;;;;;5054952;28;20053;-22
2023/07/01 10:05:33;;;;;;;2.10;1.90;;;;;;;;;;5055020;28;20048;-22
2023/07/01 10:08:00;;;;;;;1.63;1.52;;;;;;;;;;5055101;28;20433;-18
2023/07/01 10:10:26;;;;;;;1.85;1.70;;;;;;;;;;5055075;28;20037;-20
2023/07/01 10:12:53;;;;;;;1.58;1.48;;;;;;;;;;5054948;28;20033;-20
2023/07/01 10:15:21;;;;;;;2.28;1.83;;;;;;;;;;5055030;28;20100;-22
2023/07/01 10:17:48;;;;;;;2.17;1.77;;;;;;;;;;5055371;28;20029;-21
2023/07/01 10:20:33;;;;;;;1.48;1.38;;;;;;;;;;5055213;28;20458;-24
2023/07/01 10:23:03;;;;;;;2.03;1.88;;;;;;;;;;5054769;28;20387;-19
2023/07/01 10:25:36;;;;;;;2.45;1.85;;;;;;;;;;5055129;28;20108;-19
2023/07/01 10:28:04;;;;;;;2.97;1.80;;;;;;;;;;5054787;28;20029;-25
2023/07/01 10:30:42;;;;;;;2.53;1.70;;;;;;;;;;5054776;28;20028;-21
2023/07/01 10:33:32;;;;;;;2.47;1.73;;;;;;;;;;5054583;28;20029;-23
2023/07/01 10:36:03;;;;;;;1.50;1.40;;;;;;;;;;5054752;28;20360;-20
2023/07/01 10:38:31;;;;;;;1.92;1.73;;;;;;;;;;5054646;28;20029;-19
2023/07/01 10:40:58;;;;;;;2.40;1.90;;;;;;;;;;5055135;28;20025;-24
2023/07/01 10:43:32;;;;;;;1.70;1.60;;;;;;;;;;5054624;28;20021;-18
2023/07/01 10:46:12;;;;;;;3.50;1.60;;;;;;;;;;5054833;28;20028;-20
2023/07/01 10:48:42;;;;;;;1.88;1.50;;;;;;;;;;5054537;28;20020;-19
2023/07/01 10:51:12;;;;;;;1.95;1.70;;;;;;;;;;5054791;28;20029;-21
2023/07/01 10:53:57;;;;;;;5.90;2.03;;;;;;;;;;5054407;28;20029;-21
2023/07/01 10:56:23;;;;;;;1.80;1.60;;;;;;;;;;5054619;28;20409;-21
2023/07/01 10:59:12;;;;;;;2.75;1.63;;;;;;;;;;5054713;28;20017;-19
2023/07/01 11:01:42;;;;;;;1.42;1.20;;;;;;;;;;5041945;28;20527;-26
2023/07/01 11:04:08;;;;;;;2.42;1.95;;;;;;;;;;5054170;28;20380;-21
2023/07/01 11:07:00;;;;;;;1.77;1.52;;;;;;;;;;5054672;28;20029;-22
2023/07/01 11:09:32;;;;;;;2.55;1.65;;;;;;;;;;5052162;28;20055;-25
2023/07/01 11:11:59;;;;;;;2.83;1.38;;;;;;;;;;5058577;28;20317;-17
2023/07/01 11:14:32;;;;;;;2.38;1.63;;;;;;;;;;5058381;28;20122;-20
2023/07/01 11:17:09;;;;;;;2.78;1.58;;;;;;;;;;5058528;28;20045;-21
2023/07/01 11:19:35;;;;;;;1.77;1.55;;;;;;;;;;5058214;28;20021;-20
2023/07/01 11:22:01;;;;;;;2.60;1.73;;;;;;;;;;5058059;28;20033;-19
2023/07/01 11:24:27;;;;;;;1.67;1.58;;;;;;;;;;5058426;28;20029;-19
2023/07/01 11:27:01;;;;;;;3.28;2.83;;;;;;;;;;5058650;28;20372;-19
2023/07/01 11:29:27;;;;;;;3.10;2.00;;;;;;;;;;5058056;28;20100;-23
2023/07/01 11:31:59;;;;;;;3.30;1.40;;;;;;;;;;5057984;28;20029;-20
2023/07/01 11:34:26;;;;;;;3.15;1.80;;;;;;;;;;5058258;28;20402;-20
2023/07/01 11:36:52;;;;;;;1.95;1.40;;;;;;;;;;5057822;28;20494;-17
2023/07/01 11:39:19;;;;;;;1.88;1.45;;;;;;;;;;5057908;28;20100;-20
2023/07/01 11:41:48;;;;;;;2.17;1.50;;;;;;;;;;5057797;28;20029;-17
2023/07/01 11:44:15;;;;;;;3.05;1.15;;;;;;;;;;5057829;28;20017;-20
2023/07/01 11:46:42;;;;;;;1.45;1.27;;;;;;;;;;5040197;28;20059;-22
2023/07/01 11:49:19;;;;;;;1.35;1.25;;;;;;;;;;5057985;28;20021;-20
2023/07/01 11:51:47;;;;;;;3.63;2.92;;;;;;;;;;5057911;28;20039;-21
2023/07/01 11:54:13;;;;;;;2.03;1.58;;;;;;;;;;5057537;28;20036;-22
2023/07/01 11:56:40;;;;;;;3.40;1.38;;;;;;;;;;5057750;28;20090;-19
2023/07/01 11:59:06;;;;;;;2.20;1.45;;;;;;;;;;5057821;28;20017;-21
2023/07/01 12:01:33;;;;;;;1.88;1.38;;;;;;;;;;5057444;28;20025;-20
2023/07/01 12:03:59;;;;;;;1.67;1.58;;;;;;;;;;5057231;28;20376;-18
2023/07/01 12:06:26;;;;;;;1.88;1.70;;;;;;;;;;5057434;28;20017;-19
2023/07/01 12:08:53;;;;;;;2.28;1.25;;;;;;;;;;5057600;28;20415;-21
2023/07/01 12:11:20;;;;;;;3.25;2.08;;;;;;;;;;5057609;28;20025;-23
2023/07/01 12:13:46;;;;;;;1.48;1.38;;;;;;;;;;5057731;28;20096;-20
2023/07/01 12:16:12;;;;;;;3.10;1.33;;;;;;;;;;5057503;28;20355;-20
2023/07/01 12:18:38;;;;;;;1.67;1.40;;;;;;;;;;5057362;28;20036;-19
2023/07/01 12:21:05;;;;;;;2.05;1.50;;;;;;;;;;5057528;28;20309;-20
2023/07/01 12:23:40;;;;;;;1.50;1.40;;;;;;;;;;5057536;28;20112;-20
2023/07/01 12:26:06;;;;;;;3.47;1.90;;;;;;;;;;5057002;28;20051;-23
2023/07/01 12:28:32;;;;;;;3.50;1.83;;;;;;;;;;5057315;28;20091;-19
2023/07/01 12:30:58;;;;;;;1.40;1.30;;;;;;;;;;5056894;28;20025;-21
2023/07/01 12:33:24;;;;;;;1.20;1.10;;;;;;;;;;5057095;28;20053;-18
2023/07/01 12:35:51;;;;;;;3.30;1.70;;;;;;;;;;5057142;28;20083;-19
2023/07/01 12:38:17;;;;;;;1.55;1.42;;;;;;;;;;5057001;28;20021;-21
2023/07/01 12:40:43;;;;;;;1.83;1.58;;;;;;;;;;5056696;28;20021;-17
2023/07/01 12:43:10;;;;;;;1.70;1.60;;;;;;;;;;5056658;28;20033;-19
2023/07/01 12:45:37;;;;;;;1.48;1.38;;;;;;;;;;5056684;28;20444;-22
2023/07/01 12:48:07;;;;;;;1.73;1.60;;;;;;;;;;5056919;28;20025;-24
2023/07/01 12:50:34;;;;;;;1.77;1.67;;;;;;;;;;5057161;28;20029;-22
2023/07/01 12:53:00;;;;;;;1.30;1.20;;;;;;;;;;5056452;28;20076;-20
2023/07/01 12:55:26;;;;;;;2.15;1.58;;;;;;;;;;5056771;28;20049;-19
2023/07/01 12:57:52;;;;;;;1.55;1.45;;;;;;;;;;5056302;28;20040;-21
2023/07/01 13:00:19;;;;;;;1.60;1.30;;;;;;;;;;5056693;28;20104;-22
2023/07/01 13:02:46;;;;;;;1.45;1.35;;;;;;;;;;5056598;28;20500;-18
2023/07/01 13:05:15;;;;;;;1.50;1.33;;;;;;;;;;5038823;28;20059;-23
2023/07/01 13:07:41;;;;;;;1.58;1.48;;;;;;;;;;5056229;28;20106;-20
2023/07/01 13:10:09;;;;;;;2.95;1.70;;;;;;;;;;5056213;28;20043;-23
2023/07/01 13:12:36;;;;;;;1.88;1.77;;;;;;;;;;5056249;28;20025;-22
2023/07/01 13:15:06;;;;;;;2.53;2.03;;;;;;;;;;5056095;28;20484;-20
2023/07/01 13:17:41;;;;;;;1.60;1.13;;;;;;;;;;5055986;28;20036;-18
2023/07/01 13:20:08;;;;;;;2.47;1.55;;;;;;;;;;5056046;28;20036;-21
2023/07/01 13:22:34;;;;;;;1.60;1.50;;;;;;;;;;5055897;28;20040;-19
2023/07/01 13:25:01;;;;;;;2.00;1.73;;;;;;;;;;5056676;28;20017;-20
2023/07/01 13:27:27;;;;;;;1.20;1.20;;;;;;;;;;5056599;28;20028;-20
2023/07/01 13:29:53;;;;;;;2.10;1.38;;;;;;;;;;5055872;28;20518;-19
2023/07/01 13:32:21;;;;;;;3.90;2.72;;;;;;;;;;5054680;28;20051;-22
2023/07/01 13:34:47;;;;;;;1.65;1.55;;;;;;;;;;5038207;28;20025;-22
2023/07/01 13:37:17;;;;;;;1.48;1.38;;;;;;;;;;5055883;28;20112;-23
2023/07/01 13:39:45;;;;;;;1.52;1.40;;;;;;;;;;5055673;28;20021;-22
2023/07/01 13:42:11;;;;;;;1.10;1.00;;;;;;;;;;5055524;28;20142;-21
2023/07/01 13:44:38;;;;;;;1.60;1.50;;;;;;;;;;5055503;28;20063;-23
2023/07/01 13:47:06;;;;;;;1.40;1.30;;;;;;;;;;5055509;28;20116;-21
2023/07/01 13:49:32;;;;;;;1.45;1.35;;;;;;;;;;5055712;28;20107;-21
2023/07/01 13:51:58;;;;;;;1.63;1.50;;;;;;;;;;5055590;28;20029;-23
2023/07/01 13:54:31;;;;;;;1.65;1.55;;;;;;;;;;5096125;27;20393;-19
2023/07/01 13:56:59;;;;;;;1.80;1.70;;;;;;;;;;5092206;28;20054;-20
2023/07/01 13:59:26;;;;;;;1.60;1.50;;;;;;;;;;5092196;28;20020;-20
2023/07/01 14:01:55;;;;;;;1.30;1.20;;;;;;;;;;5093103;28;20029;-21
2023/07/01 14:04:22;;;;;;;1.48;1.38;;;;;;;;;;5112706;28;20127;-17
2023/07/01 14:06:48;;;;;;;1.65;1.50;;;;;;;;;;5112928;28;20028;-19
2023/07/01 14:09:22;;;;;;;1.52;1.40;;;;;;;;;;5111289;28;20024;-24
2023/07/01 14:11:48;;;;;;;1.50;1.30;;;;;;;;;;5112733;28;20442;-19
2023/07/01 14:14:19;;;;;;;1.73;1.10;;;;;;;;;;5112405;28;20038;-19
2023/07/01 14:16:45;;;;;;;;;;;;;;;;;;5112912;28;20034;-19
2023/07/01 14:19:12;;;;;;;1.65;1.55;;;;;;;;;;5112133;28;20327;-18
2023/07/01 14:21:38;;;;;;;1.38;1.27;;;;;;;;;;5112363;28;20020;-17
2023/07/01 14:24:04;;;;;;;1.88;1.70;;;;;;;;;;5111964;28;20447;-20
2023/07/01 14:26:37;;;;;;;1.67;1.55;;;;;;;;;;5112003;28;20023;-17
2023/07/01 14:29:04;;;;;;;2.38;1.98;;;;;;;;;;5111990;28;20032;-18
2023/07/01 14:31:32;;;;;;;1.50;1.40;;;;;;;;;;5112183;28;20038;-21
2023/07/01 14:34:02;;;;;;;1.10;0.95;;;;;;;;;;5111730;28;20090;-19
2023/07/01 14:36:30;;;;;;;1.23;1.20;;;;;;;;;;5111870;28;20027;-18
2023/07/01 14:38:57;;;;;;;2.78;1.90;;;;;;;;;;5111797;28;20016;-18
2023/07/01 14:41:25;;;;;;;1.13;1.13;;;;;;;;;;5111969;28;20050;-21
2023/07/01 14:43:53;;;;;;;1.55;1.45;;;;;;;;;;5111602;28;20111;-23